Data for 09/21/2014

Time Sea-Level Adjusted Pressure Absolute Pressure Temperature Relative Humidity Dew Point   
(mb) (inHg) (mb) (inHg) (C) (F) (%) (C) (F)
00:05 1026 30.3 855 25.25 14.5 58.1 48 3.8 38.8
00:10 1026 30.3 855 25.25 14.5 58.1 48 3.8 38.9
00:15 1026 30.3 855 25.25 14.6 58.2 48 3.7 38.7
00:20 1026 30.3 855 25.25 14.6 58.2 48 3.9 39
00:25 1026 30.3 855 25.25 14.5 58.1 48 3.8 38.8
00:30 1026 30.3 855 25.25 14.4 58 48 3.8 38.8
00:35 1026 30.3 855 25.25 14.4 57.9 49 3.8 38.8
00:40 1026 30.3 855 25.25 14.3 57.7 49 3.8 38.8
00:45 1026 30.3 855 25.25 14.3 57.7 49 3.7 38.6
00:50 1026 30.3 855 25.25 14.3 57.7 48 3.5 38.4
00:55 1026 30.3 855 25.25 14.3 57.7 48 3.6 38.5
01:00 1026 30.3 855 25.25 14.3 57.8 48 3.6 38.4
01:05 1026 30.3 855 25.25 14.3 57.7 48 3.7 38.6
01:10 1026 30.3 855 25.25 14.1 57.4 49 3.7 38.6
01:15 1026 30.3 855 25.25 14 57.2 49 3.6 38.5
01:20 1026 30.3 855 25.25 13.9 57 50 3.7 38.7
01:25 1026 30.3 855 25.25 13.9 56.9 50 3.6 38.5
01:30 1025 30.27 855 25.25 13.8 56.9 50 3.6 38.5
01:35 1025 30.27 855 25.25 13.8 56.9 50 3.7 38.7
01:40 1026 30.3 855 25.25 13.7 56.7 51 3.7 38.7
01:45 1026 30.3 855 25.25 13.6 56.4 51 3.7 38.6
01:50 1026 30.3 855 25.25 13.5 56.4 51 3.7 38.7
01:55 1026 30.3 855 25.25 13.5 56.3 51 3.7 38.7
02:00 1026 30.3 855 25.25 13.4 56.2 52 3.7 38.7
02:05 1026 30.3 855 25.25 13.4 56.1 52 3.9 39
02:10 1026 30.3 855 25.25 13.2 55.8 52 3.8 38.8
02:15 1026 30.3 855 25.25 13.3 55.9 52 3.7 38.7
02:20 1026 30.3 855 25.25 13.3 55.9 53 3.9 39
02:25 1026 30.3 855 25.25 13 55.5 53 3.9 39
02:30 1026 30.3 855 25.25 13 55.4 53 3.8 38.8
02:35 1026 30.3 855 25.25 12.9 55.3 53 3.8 38.8
02:40 1026 30.3 855 25.25 13 55.3 54 3.8 38.9
02:45 1026 30.3 855 25.25 12.9 55.3 53 3.7 38.7
02:50 1026 30.3 855 25.25 12.9 55.3 54 3.8 38.9
02:55 1026 30.3 855 25.25 12.9 55.1 54 3.8 38.8
03:00 1026 30.3 855 25.25 12.9 55.1 54 3.9 38.9
03:05 1026 30.3 855 25.25 12.8 55 54 3.8 38.9
03:10 1026 30.3 855 25.25 12.6 54.7 55 3.9 38.9
03:15 1026 30.3 855 25.25 12.6 54.6 55 3.9 39.1
03:20 1026 30.3 855 25.25 12.4 54.3 56 3.9 39.1
03:25 1026 30.3 855 25.25 12.3 54.1 56 3.9 39
03:30 1026 30.3 855 25.25 12.2 53.9 57 3.9 39
03:35 1026 30.3 855 25.25 12.1 53.8 57 3.9 39
03:40 1026 30.3 855 25.25 12 53.6 57 3.9 39.1
03:45 1026 30.3 855 25.25 12 53.6 57 3.9 39
03:50 1026 30.3 855 25.25 11.9 53.4 58 3.9 39
03:55 1026 30.3 855 25.25 11.8 53.3 58 3.9 38.9
04:00 1026 30.3 855 25.25 11.8 53.2 58 3.8 38.9
04:05 1026 30.3 855 25.25 11.7 53.1 58 3.9 39
04:10 1026 30.3 855 25.25 11.6 52.9 58 3.8 38.8
04:15 1026 30.3 855 25.25 11.7 53 59 3.8 38.9
04:20 1026 30.3 855 25.25 11.6 53 58 3.7 38.7
04:25 1025 30.27 855 25.25 11.7 53 58 3.8 38.9
04:30 1025 30.27 855 25.25 11.7 53 58 3.8 38.9
04:35 1025 30.27 855 25.25 11.6 53 58 3.8 38.9
04:40 1025 30.27 855 25.25 11.6 52.8 59 3.8 38.8
04:45 1025 30.27 855 25.25 11.6 52.8 59 3.9 39
04:50 1025 30.27 855 25.25 11.6 52.8 59 3.8 38.8
04:55 1025 30.27 855 25.25 11.6 52.9 58 3.7 38.7
05:00 1025 30.27 855 25.25 11.8 53.2 58 3.7 38.7
05:05 1025 30.27 855 25.25 11.8 53.3 57 3.7 38.7
05:10 1025 30.27 855 25.25 11.8 53.2 58 3.8 38.8
05:15 1025 30.27 855 25.25 11.6 53 59 3.9 39
05:20 1025 30.27 855 25.25 11.5 52.7 59 3.8 38.9
05:25 1025 30.27 855 25.25 11.4 52.5 60 3.9 38.9
05:30 1025 30.27 855 25.25 11.2 52.2 61 3.9 39.1
05:35 1025 30.27 855 25.25 11 51.8 62 4 39.1
05:40 1025 30.27 855 25.25 10.7 51.3 63 3.9 39.1
05:45 1025 30.27 855 25.25 10.7 51.2 62 3.9 38.9
05:50 1025 30.27 855 25.25 10.6 51.1 63 3.9 39
05:55 1025 30.27 855 25.25 10.6 51 63 3.8 38.8
06:00 1025 30.27 855 25.25 10.6 51 63 3.8 38.9
06:05 1025 30.27 855 25.25 10.5 50.9 63 3.8 38.8
06:10 1025 30.27 855 25.25 10.6 51 62 3.7 38.7
06:15 1025 30.27 855 25.25 10.6 51.1 63 3.8 38.9
06:20 1025 30.27 855 25.25 10.6 51 63 3.8 38.8
06:25 1025 30.27 855 25.25 10.8 51.4 62 3.8 38.8
06:30 1025 30.27 855 25.25 11 51.7 61 3.8 38.8
06:35 1025 30.27 855 25.25 11.1 51.9 61 3.9 39
06:40 1025 30.27 855 25.25 11.3 52.3 60 3.8 38.8
06:45 1025 30.27 855 25.25 11.4 52.6 60 3.9 39
06:50 1025 30.27 855 25.25 11.5 52.8 60 4 39.2
06:55 1025 30.27 855 25.25 11.6 52.8 60 4 39.3
07:00 1025 30.27 855 25.25 11.5 52.7 60 4 39.3
07:05 1025 30.27 855 25.25 11.6 52.9 59 4 39.1
07:10 1025 30.27 855 25.25 11.7 53.1 58 3.8 38.9
07:15 1025 30.27 855 25.25 11.9 53.3 58 4 39.2
07:20 1025 30.27 855 25.25 12 53.5 58 4 39.2
07:25 1025 30.27 855 25.25 12.1 53.7 57 3.9 39.1
07:30 1025 30.27 855 25.25 12.2 53.9 57 4.1 39.3
07:35 1025 30.27 855 25.25 12.4 54.4 56 4 39.3
07:40 1025 30.27 855 25.25 12.6 54.6 56 4.2 39.5
07:45 1025 30.27 855 25.25 12.7 54.8 56 4.1 39.4
07:50 1025 30.27 855 25.25 12.9 55.3 55 4.2 39.5
07:55 1025 30.27 855 25.25 13.1 55.5 55 4.2 39.5
08:00 1025 30.27 855 25.25 13.2 55.7 54 4.2 39.5
08:05 1025 30.27 855 25.25 13.4 56 54 4.3 39.7
08:10 1025 30.27 854 25.22 13.6 56.4 52 4 39.3
08:15 1025 30.27 854 25.22 13.7 56.7 52 4.2 39.5
08:20 1025 30.27 854 25.22 13.9 57 52 4.2 39.6
08:25 1025 30.27 854 25.22 14.1 57.4 51 4.2 39.6
08:30 1025 30.27 854 25.22 14.4 58 50 4.3 39.8
08:35 1025 30.27 854 25.22 14.7 58.4 49 4.2 39.5
08:40 1025 30.27 854 25.22 14.7 58.5 50 4.4 39.8
08:45 1025 30.27 854 25.22 15.1 59.1 48 4.2 39.6
08:50 1025 30.27 854 25.22 15.1 59.2 48 4.2 39.6
08:55 1025 30.27 854 25.22 15.3 59.5 47 4.3 39.7
09:00 1025 30.27 854 25.22 15.7 60.3 46 4.2 39.5
09:05 1025 30.27 854 25.22 15.8 60.4 47 4.5 40.1
09:10 1025 30.27 854 25.22 15.9 60.6 46 4.5 40.1
09:15 1025 30.27 854 25.22 16 60.7 46 4.3 39.8
09:20 1025 30.27 854 25.22 16 60.8 46 4.3 39.8
09:25 1025 30.27 854 25.22 16 60.9 46 4.4 39.9
09:30 1025 30.27 854 25.22 15.9 60.7 46 4.4 39.8
09:35 1025 30.27 854 25.22 16.3 61.3 46 4.8 40.7
09:40 1025 30.27 854 25.22 16.3 61.4 47 5 41
09:45 1025 30.27 854 25.22 16.5 61.6 44 4.4 39.9
09:50 1025 30.27 854 25.22 16.5 61.7 45 4.6 40.4
09:55 1025 30.27 854 25.22 16.9 62.4 44 4.7 40.5
10:00 1025 30.27 854 25.22 17.1 62.8 44 4.9 40.7
10:05 1025 30.27 854 25.22 16.8 62.3 44 4.5 40.1
10:10 1025 30.27 854 25.22 17.2 62.9 45 5.2 41.3
10:15 1025 30.27 854 25.22 17 62.6 43 4.6 40.2
10:20 1025 30.27 854 25.22 18 64.4 41 4.6 40.2
10:25 1025 30.27 854 25.22 18.1 64.5 43 5.5 42
10:30 1025 30.27 854 25.22 17.1 62.9 42 4.4 39.9
10:35 1025 30.27 854 25.22 18.1 64.6 41 4.8 40.6
10:40 1025 30.27 854 25.22 18.2 64.8 40 4.6 40.3
10:45 1025 30.27 854 25.22 18.1 64.6 40 4.5 40.1
10:50 1025 30.27 854 25.22 17.9 64.2 41 4.6 40.2
10:55 1025 30.27 854 25.22 18.7 65.6 39 4.6 40.4
11:00 1025 30.27 854 25.22 18.8 65.9 41 5.5 42
11:05 1025 30.27 854 25.22 17.8 64 43 5.1 41.2
11:10 1025 30.27 854 25.22 18.5 65.3 39 4.5 40.1
11:15 1025 30.27 854 25.22 19.6 67.2 38 4.9 40.7
11:20 1025 30.27 854 25.22 19.9 67.8 38 5.4 41.7
11:25 1024 30.24 854 25.22 18.5 65.3 41 5.3 41.6
11:30 1024 30.24 854 25.22 19.6 67.4 37 4.6 40.2
11:35 1024 30.24 854 25.22 20 67.9 37 5.2 41.3
11:40 1024 30.24 854 25.22 20.1 68.1 37 4.9 40.9
11:45 1024 30.24 853 25.19 19.6 67.3 37 4.6 40.3
11:50 1024 30.24 853 25.19 19.6 67.2 39 5.4 41.7
11:55 1024 30.24 853 25.19 19.9 67.7 36 4.5 40.1
12:00 1024 30.24 853 25.19 19.8 67.7 37 4.8 40.7
12:05 1024 30.24 853 25.19 21 69.8 34 4.7 40.5
12:10 1024 30.24 853 25.19 20.7 69.2 36 5.2 41.4
12:15 1024 30.24 853 25.19 20.7 69.3 35 4.9 40.8
12:20 1024 30.24 853 25.19 21.2 70.1 36 5.5 41.9
12:25 1024 30.24 853 25.19 21 69.7 36 5.4 41.8
12:30 1024 30.24 853 25.19 21.3 70.3 35 5.5 41.9
12:35 1024 30.24 853 25.19 21.4 70.6 34 5.1 41.2
12:40 1023 30.21 853 25.19 20.7 69.2 36 5.1 41.2
12:45 1023 30.21 853 25.19 20.6 69.1 36 5.2 41.4
12:50 1023 30.21 852 25.16 20.3 68.5 36 5.1 41.1
12:55 1023 30.21 852 25.16 20.5 68.9 37 5.5 41.9
13:00 1023 30.21 852 25.16 20.8 69.5 35 5.1 41.2
13:05 1023 30.21 852 25.16 21.1 70 33 4.5 40.2
13:10 1023 30.21 852 25.16 21.2 70.2 34 5.1 41.1
13:15 1023 30.21 852 25.16 22.3 72.1 33 5.6 42
13:20 1023 30.21 852 25.16 21.1 69.9 35 5.2 41.4
13:25 1023 30.21 852 25.16 21.3 70.3 34 4.8 40.7
13:30 1023 30.21 852 25.16 21.4 70.5 32 4.2 39.5
13:35 1023 30.21 852 25.16 22.3 72.1 30 3.9 39.1
13:40 1023 30.21 852 25.16 22.5 72.4 29 3.8 38.9
13:45 1023 30.21 852 25.16 22.6 72.7 29 4 39.1
13:50 1023 30.21 852 25.16 22.5 72.5 30 4.3 39.8
13:55 1022 30.18 852 25.16 22.7 72.9 29 3.8 38.8
14:00 1022 30.18 852 25.16 22.8 73.1 29 4 39.3
14:05 1022 30.18 852 25.16 23 73.3 29 4.3 39.7
14:10 1022 30.18 852 25.16 22.8 73 29 4.2 39.5
14:15 1022 30.18 851 25.13 22.5 72.5 30 4.1 39.4
14:20 1022 30.18 851 25.13 22.6 72.8 29 4 39.3
14:25 1022 30.18 851 25.13 22.6 72.7 30 4.2 39.6
14:30 1022 30.18 851 25.13 22.7 72.8 30 4.2 39.6
14:35 1022 30.18 851 25.13 22.8 73 29 4 39.2
14:40 1022 30.18 851 25.13 22.7 72.9 30 4.5 40
14:45 1022 30.18 851 25.13 22.7 72.9 29 3.9 39
14:50 1022 30.18 851 25.13 23.1 73.5 29 4.4 39.9
14:55 1022 30.18 851 25.13 22.8 73 30 4.4 39.8
15:00 1022 30.18 851 25.13 22.4 72.2 30 4 39.1
15:05 1022 30.18 851 25.13 22.4 72.3 29 3.6 38.5
15:10 1022 30.18 851 25.13 22.3 72.1 28 3.3 38
15:15 1022 30.18 851 25.13 22.3 72.2 28 3.3 38
15:20 1022 30.18 851 25.13 22 71.5 30 3.6 38.5
15:25 1022 30.18 851 25.13 21.7 71 31 4 39.2
15:30 1021 30.15 851 25.13 21.6 70.9 32 4.3 39.7
15:35 1021 30.15 851 25.13 21.7 71 32 4.4 39.9
15:40 1021 30.15 851 25.13 21.6 70.9 32 4.5 40.1
15:45 1021 30.15 851 25.13 21.4 70.6 32 4.3 39.7
15:50 1021 30.15 851 25.13 21.4 70.5 32 4.2 39.6
15:55 1021 30.15 851 25.13 21.2 70.1 33 4.5 40.1
16:00 1021 30.15 851 25.13 21.2 70.2 33 4.5 40.1
16:05 1021 30.15 851 25.13 21.2 70.2 34 4.8 40.6
16:10 1021 30.15 850 25.1 21.1 69.9 34 4.8 40.6
16:15 1021 30.15 851 25.13 21 69.7 35 4.9 40.8
16:20 1021 30.15 851 25.13 20.9 69.6 34 4.8 40.7
16:25 1021 30.15 851 25.13 20.8 69.4 35 5 41
16:30 1021 30.15 851 25.13 20.6 69.1 36 5.2 41.4
16:35 1021 30.15 850 25.1 20.5 68.8 36 5 41
16:40 1021 30.15 850 25.1 20.4 68.7 36 5.1 41.2
16:45 1021 30.15 850 25.1 20.3 68.6 37 5.5 41.9
16:50 1021 30.15 850 25.1 20.4 68.8 36 5.1 41.3
16:55 1021 30.15 850 25.1 20.3 68.6 37 5.5 41.9
17:00 1021 30.15 851 25.13 20.2 68.4 38 5.8 42.4
17:05 1021 30.15 851 25.13 20 68 39 5.8 42.4
17:10 1021 30.15 851 25.13 19.7 67.5 40 5.9 42.7
17:15 1021 30.15 851 25.13 19.6 67.2 41 5.9 42.7
17:20 1021 30.15 851 25.13 19.4 67 41 6 42.8
17:25 1021 30.15 851 25.13 19.3 66.7 41 6 42.8
17:30 1021 30.15 851 25.13 19.2 66.6 42 6.3 43.3
17:35 1021 30.15 850 25.1 19.1 66.4 43 6.3 43.3
17:40 1021 30.15 850 25.1 19.1 66.3 43 6.4 43.6
17:45 1021 30.15 850 25.1 19 66.3 44 6.5 43.7
17:50 1021 30.15 850 25.1 19.1 66.3 43 6.5 43.6
17:55 1021 30.15 850 25.1 19 66.2 44 6.5 43.7
18:00 1021 30.15 850 25.1 18.9 66.1 44 6.6 43.9
18:05 1021 30.15 850 25.1 18.8 65.9 45 6.7 44.1
18:10 1021 30.15 850 25.1 18.8 65.8 45 6.9 44.3
18:15 1021 30.15 850 25.1 18.7 65.6 46 6.8 44.3
18:20 1021 30.15 850 25.1 18.6 65.5 46 6.9 44.4
18:25 1021 30.15 850 25.1 18.5 65.2 46 6.8 44.3
18:30 1021 30.15 850 25.1 18.4 65.2 47 6.9 44.5
18:35 1021 30.15 850 25.1 18.4 65.1 47 7 44.6
18:40 1021 30.15 850 25.1 18.3 64.9 47 7 44.6
18:45 1021 30.15 850 25.1 18.2 64.8 48 7 44.6
18:50 1021 30.15 850 25.1 18.2 64.8 47 7 44.5
18:55 1021 30.15 850 25.1 18.2 64.7 48 7 44.5
19:00 1021 30.15 850 25.1 18.2 64.7 48 7 44.7
19:05 1021 30.15 850 25.1 18.1 64.5 48 6.9 44.4
19:10 1021 30.15 850 25.1 18.1 64.6 47 6.8 44.3
19:15 1021 30.15 850 25.1 18.1 64.7 47 6.8 44.2
19:20 1021 30.15 850 25.1 18.1 64.6 47 6.8 44.2
19:25 1021 30.15 850 25.1 18.1 64.5 47 6.7 44.1
19:30 1021 30.15 850 25.1 18 64.4 47 6.6 44
19:35 1021 30.15 850 25.1 18 64.4 47 6.6 43.9
19:40 1021 30.15 850 25.1 18 64.4 46 6.5 43.6
19:45 1021 30.15 850 25.1 18 64.4 47 6.5 43.8
19:50 1021 30.15 850 25.1 17.9 64.3 47 6.6 43.8
19:55 1021 30.15 850 25.1 17.8 64.1 47 6.5 43.8
20:00 1021 30.15 850 25.1 17.7 63.9 48 6.6 43.8
20:05 1021 30.15 850 25.1 17.6 63.7 48 6.5 43.7
20:10 1021 30.15 850 25.1 17.7 63.9 47 6.3 43.3
20:15 1021 30.15 850 25.1 17.7 63.9 47 6.4 43.5
20:20 1021 30.15 850 25.1 17.7 63.8 47 6.4 43.4
20:25 1021 30.15 850 25.1 17.6 63.7 47 6.3 43.4
20:30 1021 30.15 850 25.1 17.6 63.6 47 6.2 43.2
20:35 1021 30.15 850 25.1 17.6 63.6 47 6.2 43.2
20:40 1021 30.15 850 25.1 17.5 63.5 47 6.2 43.1
20:45 1021 30.15 850 25.1 17.5 63.6 46 6.1 42.9
20:50 1021 30.15 850 25.1 17.6 63.7 47 6.2 43.2
20:55 1021 30.15 850 25.1 17.6 63.6 46 6 42.8
21:00 1020 30.12 850 25.1 17.5 63.6 47 6.1 43
21:05 1020 30.12 850 25.1 17.5 63.5 46 6 42.7
21:10 1020 30.12 850 25.1 17.5 63.4 47 6 42.9
21:15 1020 30.12 850 25.1 17.4 63.3 47 6 42.7
21:20 1020 30.12 850 25.1 17.4 63.3 46 5.9 42.6
21:25 1020 30.12 850 25.1 17.3 63.2 46 5.8 42.5
21:30 1020 30.12 850 25.1 17.3 63.1 47 6 42.8
21:35 1020 30.12 850 25.1 17.2 63 47 5.9 42.6
21:40 1020 30.12 850 25.1 17.3 63.1 47 5.9 42.5
21:45 1020 30.12 850 25.1 17.2 63 47 5.8 42.5
21:50 1020 30.12 850 25.1 17.2 62.9 47 5.9 42.7
21:55 1020 30.12 850 25.1 17.1 62.8 47 5.8 42.4
22:00 1020 30.12 850 25.1 17.2 62.9 46 5.6 42
22:05 1020 30.12 850 25.1 17.3 63.1 46 5.5 42
22:10 1020 30.12 850 25.1 17.3 63.1 45 5.4 41.7
22:15 1020 30.12 850 25.1 17.3 63.1 45 5.5 41.8
22:20 1020 30.12 850 25.1 17.2 62.9 45 5.4 41.7
22:25 1020 30.12 850 25.1 17.1 62.8 45 5.3 41.5
22:30 1020 30.12 850 25.1 17.1 62.7 45 5.2 41.4
22:35 1020 30.12 850 25.1 17.1 62.7 45 5 41.1
22:40 1020 30.12 850 25.1 17.1 62.7 45 5.1 41.1
22:45 1020 30.12 850 25.1 17 62.5 45 5 41
22:50 1020 30.12 850 25.1 17 62.5 45 5.2 41.3
22:55 1020 30.12 849 25.07 16.9 62.5 45 4.9 40.8
23:00 1020 30.12 849 25.07 16.9 62.5 44 4.8 40.6
23:05 1020 30.12 849 25.07 17 62.5 44 4.8 40.6
23:10 1020 30.12 849 25.07 16.9 62.4 45 5 40.9
23:15 1020 30.12 849 25.07 16.8 62.3 45 5 41
23:20 1020 30.12 849 25.07 16.8 62.3 46 5.1 41.2
23:25 1020 30.12 849 25.07 16.8 62.2 46 5.1 41.3
23:30 1020 30.12 849 25.07 16.8 62.2 46 5.1 41.1
23:35 1020 30.12 849 25.07 16.8 62.2 46 5.2 41.4
23:40 1020 30.12 849 25.07 16.7 62 47 5.2 41.4
23:45 1020 30.12 849 25.07 16.5 61.6 47 5.3 41.5
23:50 1020 30.12 849 25.07 16.2 61.2 48 5.3 41.6
23:55 1020 30.12 849 25.07 16.1 61 48 5.2 41.3
24:00 1020 30.12 849 25.07 16.1 61 48 5.3 41.5